Blue Star Naxos — SZUI — position and weather

sailwx.info

Track history (hours):
 
Tides and Currents Weather Stations Pressure Air Temp Water Temp Dewpoint Dewpoint Depression Visibility Wind Speed Wind Dir Waves Ship Positions

Blue Star Naxos

Last reported at 2015-Feb-28 00:21 UTC. Time now 2015-Feb-28 12:25 UTC.
Position N 36°52' E 025°45'.

Length 124 m; draft 5 m.

Type: Passenger vessel. MMSI: 239923000.

Date/timePositionNaut miles runAvg speedWind from/ knotsBaromVisibWave heightAir tempDewpointWater temp
2015-Feb-28 00:21N 36°52' E 025°45'910.4
2015-Feb-27 23:32N 36°53' E 025°34'10 8.0
2015-Feb-27 22:20N 36°55' E 025°22'1114.5
2015-Feb-27 21:33N 37°06' E 025°22'1110.3
2015-Feb-27 20:31N 37°05' E 025°09'9 9.7
2015-Feb-27 19:33N 37°10' E 024°59'6421.2
2015-Feb-27 16:32N 37°39' E 023°47'1919.5
2015-Feb-27 15:34N 37°56' E 023°38'1 0.6
2015-Feb-27 14:34N 37°57' E 023°38'0 0.0
2015-Feb-27 13:33N 37°57' E 023°38'1110.7
2015-Feb-27 12:33N 37°47' E 023°42'2921.5
2015-Feb-27 11:12N 37°31' E 024°13'3722.3
2015-Feb-27 09:33N 37°14' E 024°54'14 9.7
2015-Feb-27 08:06N 37°08' E 025°10'1018.0
2015-Feb-27 07:33N 37°06' E 025°22'1312.0
2015-Feb-27 06:27N 37°14' E 025°36'1618.0
2015-Feb-27 05:33N 37°02' E 025°50'1212.3
2015-Feb-27 04:33N 36°56' E 026°03'9 2.6
2015-Feb-27 01:09N 36°60' E 025°53'4 5.5
2015-Feb-27 00:27N 36°56' E 025°55'1516.5
2015-Feb-26 23:33N 37°07' E 025°43'1717.0
2015-Feb-26 22:34N 37°06' E 025°22'11 9.4
2015-Feb-26 21:26N 37°07' E 025°09'6 6.2
2015-Feb-26 20:32N 37°12' E 025°05'1615.6
2015-Feb-26 19:31N 37°26' E 024°57'5719.1
2015-Feb-26 16:31N 37°39' E 023°46'1919.5
2015-Feb-26 15:33N 37°56' E 023°38'1 0.5
2015-Feb-26 14:34N 37°57' E 023°38'0 0.0
2015-Feb-26 13:34N 37°57' E 023°38'8 7.8
2015-Feb-26 12:33N 37°49' E 023°41'3121.5
2015-Feb-26 11:07N 37°31' E 024°13'3522.2
2015-Feb-26 09:34N 37°15' E 024°51'1716.0
2015-Feb-26 08:29N 37°05' E 025°09'1111.5
2015-Feb-26 07:34N 37°06' E 025°22'1110.1
2015-Feb-26 06:31N 37°13' E 025°32'1818.7
2015-Feb-26 05:33N 37°02' E 025°50'1713.6
2015-Feb-26 04:20N 36°53' E 026°08'14 3.3
2015-Feb-26 00:07N 37°01' E 025°53'6 7.5
2015-Feb-25 23:19N 36°55' E 025°56'1516.9
2015-Feb-25 22:27N 37°07' E 025°44'1618.3
2015-Feb-25 21:33N 37°09' E 025°24'1110.8
2015-Feb-25 20:33N 37°08' E 025°10'8 8.5
2015-Feb-25 19:33N 37°10' E 024°60'6521.5
2015-Feb-25 16:33N 37°39' E 023°47'1919.3
2015-Feb-25 15:33N 37°56' E 023°38'1 0.6
2015-Feb-25 14:33N 37°57' E 023°38'0 0.0
2015-Feb-25 13:34N 37°57' E 023°38'1110.7
2015-Feb-25 12:33N 37°46' E 023°42'3021.3
2015-Feb-25 11:08N 37°31' E 024°14'3421.4
2015-Feb-25 09:33N 37°15' E 024°52'1613.5
2015-Feb-25 08:20N 37°05' E 025°09'1012.9
2015-Feb-25 07:34N 37°07' E 025°21'15 6.6
2015-Feb-25 05:17N 36°54' E 025°31'1012.8
2015-Feb-25 04:31N 36°54' E 025°43'3 0.6
2015-Feb-25 00:20N 36°55' E 025°40'17 9.4
2015-Feb-24 22:33N 36°59' E 025°20'1110.9
2015-Feb-24 21:34N 37°10' E 025°17'2311.4
2015-Feb-24 19:33N 37°26' E 024°57'5618.8
2015-Feb-24 16:33N 37°39' E 023°47'1919.3
2015-Feb-24 15:34N 37°56' E 023°38'1 0.7
2015-Feb-24 14:34N 37°57' E 023°38'0 0.0
2015-Feb-24 13:34N 37°57' E 023°38'10 9.5
2015-Feb-24 12:33N 37°47' E 023°41'2321.3
2015-Feb-24 11:28N 37°34' E 024°05'4221.8
2015-Feb-24 09:33N 37°15' E 024°52'1714.7
2015-Feb-24 08:24N 37°05' E 025°09'1012.3
2015-Feb-24 07:33N 37°06' E 025°22'1110.6
2015-Feb-24 06:32N 37°13' E 025°33'1918.6
2015-Feb-24 05:32N 37°01' E 025°50'1513.1
2015-Feb-24 04:21N 36°54' E 026°07'6 1.6
2015-Feb-24 00:32N 36°58' E 026°02'5 4.4
2015-Feb-23 23:29N 36°54' E 025°58'1111.4
2015-Feb-23 22:33N 37°02' E 025°50'1817.9
2015-Feb-23 21:31N 37°13' E 025°31'1313.8
2015-Feb-23 20:34N 37°10' E 025°15'1212.0
2015-Feb-23 19:34N 37°10' E 024°60'6521.5
2015-Feb-23 16:33N 37°39' E 023°47'1919.0
2015-Feb-23 15:33N 37°56' E 023°38'1 0.6
2015-Feb-23 14:33N 37°57' E 023°38'0 0.0
2015-Feb-23 13:33N 37°57' E 023°38'9 9.1
2015-Feb-23 12:33N 37°48' E 023°41'2421.5
2015-Feb-23 11:27N 37°33' E 024°05'4122.0
2015-Feb-23 09:33N 37°15' E 024°52'1715.0
2015-Feb-23 08:27N 37°05' E 025°09'1011.7
2015-Feb-23 07:33N 37°06' E 025°22'1111.5
2015-Feb-23 06:34N 36°55' E 025°24'6 6.0
2015-Feb-23 05:33N 36°52' E 025°30'1211.7
2015-Feb-23 04:30N 36°53' E 025°46'1 0.2
2015-Feb-23 00:31N 36°52' E 025°45'1212.6
2015-Feb-22 23:33N 36°52' E 025°30'1110.4
2015-Feb-22 22:31N 36°59' E 025°20'9 9.5
2015-Feb-22 21:33N 37°08' E 025°20'1210.3
2015-Feb-22 20:23N 37°11' E 025°05'1619.6
2015-Feb-22 19:33N 37°26' E 024°57'5618.8
2015-Feb-22 16:33N 37°39' E 023°47'1919.2
2015-Feb-22 15:33N 37°56' E 023°38'1 0.6
2015-Feb-22 14:33N 37°57' E 023°38'0 0.0
2015-Feb-22 13:33N 37°57' E 023°38'10 9.7
2015-Feb-22 12:33N 37°48' E 023°42'2921.3
2015-Feb-22 11:11N 37°32' E 024°13'3621.9
2015-Feb-22 09:34N 37°15' E 024°52'1614.2
2015-Feb-22 08:24N 37°05' E 025°09'1012.0
2015-Feb-22 07:33N 37°07' E 025°22'7 7.1
2015-Feb-22 06:34N 36°60' E 025°20'10 9.3
2015-Feb-22 05:28N 36°53' E 025°30'1313.5
2015-Feb-22 04:32N 36°53' E 025°45'5 0.2
2015-Feb-21 01:22N 36°55' E 025°40'17 9.6
2015-Feb-20 23:33N 37°01' E 025°19'7 6.7
2015-Feb-20 22:33N 37°07' E 025°21'12 9.2
2015-Feb-20 21:16N 37°06' E 025°06'1822.1
2015-Feb-20 20:28N 37°12' E 024°45'6221.4
2015-Feb-20 17:33N 37°45' E 023°40'1111.4
2015-Feb-20 16:34N 37°57' E 023°38'0 0.0
2015-Feb-20 15:33N 37°57' E 023°38'5 5.3
2015-Feb-20 14:32N 37°51' E 023°39'7021.3
2015-Feb-20 11:15N 37°10' E 024°51'1412.2
2015-Feb-20 10:04N 37°08' E 025°09'1018.5
2015-Feb-20 09:33N 37°08' E 025°21'1110.7
2015-Feb-20 08:34N 37°14' E 025°32'1717.1
2015-Feb-20 07:33N 37°03' E 025°49'1010.5
2015-Feb-20 06:33N 36°57' E 025°60'2 0.4
2015-Feb-20 02:10N 36°58' E 025°58'3 5.1
2015-Feb-20 01:33N 36°57' E 025°54'1717.2
2015-Feb-20 00:33N 37°10' E 025°40'1514.6
2015-Feb-19 23:33N 37°06' E 025°22'10 9.9
2015-Feb-19 22:33N 37°09' E 025°10'2 2.3
2015-Feb-19 21:29N 37°11' E 025°09'1819.0
2015-Feb-19 20:32N 37°27' E 024°59'9 8.7
2015-Feb-19 19:31N 37°32' E 024°50'4420.9
2015-Feb-19 17:26N 37°36' E 023°55'1820.6
2015-Feb-19 16:33N 37°48' E 023°38'9 9.0
2015-Feb-19 15:33N 37°57' E 023°38'0 0.0
2015-Feb-19 14:33N 37°57' E 023°38'2 1.8
2015-Feb-19 13:33N 37°56' E 023°37'2121.1
2015-Feb-19 12:32N 37°38' E 023°53'6321.0
2015-Feb-19 09:33N 37°07' E 025°01'10 9.9
2015-Feb-19 08:33N 37°10' E 025°13'1010.3
2015-Feb-19 07:33N 37°11' E 025°26'1814.9
2015-Feb-19 06:21N 37°05' E 025°47'1313.7
2015-Feb-19 05:25N 36°55' E 025°57'2115.6
2015-Feb-19 04:06N 36°38' E 026°11'24 6.5
2015-Feb-19 00:28N 36°59' E 025°58'4 3.9
2015-Feb-18 23:32N 36°58' E 025°53'1717.3
2015-Feb-18 22:33N 37°10' E 025°39'1413.7
2015-Feb-18 21:33N 37°06' E 025°22'1110.9
2015-Feb-18 20:31N 37°07' E 025°08'8 7.8
2015-Feb-18 19:34N 37°09' E 024°59'6521.6
2015-Feb-18 16:33N 37°37' E 023°46'2020.4
2015-Feb-18 15:33N 37°56' E 023°38'1 0.6
2015-Feb-18 14:33N 37°57' E 023°38'0 0.0
2015-Feb-18 13:33N 37°57' E 023°38'1312.7
2015-Feb-18 12:34N 37°45' E 023°43'6421.1
2015-Feb-18 09:33N 37°11' E 024°51'1711.5
2015-Feb-18 08:06N 37°09' E 025°12'916.7
2015-Feb-18 07:33N 37°06' E 025°22'1413.2
2015-Feb-18 06:28N 36°53' E 025°17'10 9.0
2015-Feb-18 05:20N 36°54' E 025°29'1113.1
2015-Feb-18 04:32N 36°55' E 025°43'8 7.8
2015-Feb-18 03:33N 36°50' E 025°50'1312.7
2015-Feb-18 02:32N 36°56' E 025°36'1010.5
2015-Feb-18 01:33N 36°55' E 025°23'2 1.7
2015-Feb-18 00:33N 36°54' E 025°25'  
Track history (hours):
 
Tides and Currents Weather Stations Pressure Air Temp Water Temp Dewpoint Dewpoint Depression Visibility Wind Speed Wind Dir Waves Ship Positions

Blue Star Naxos

Last reported at 2015-Feb-28 00:21 UTC. Time now 2015-Feb-28 12:25 UTC.
Position N 36°52' E 025°45'.

Length 124 m; draft 5 m.

Type: Passenger vessel. MMSI: 239923000.

Date/timePositionNaut miles runAvg speedWind from/ knotsBaromVisibWave heightAir tempDewpointWater temp
2015-Feb-28 00:21N 36°52' E 025°45'910.4
2015-Feb-27 23:32N 36°53' E 025°34'10 8.0
2015-Feb-27 22:20N 36°55' E 025°22'1114.5
2015-Feb-27 21:33N 37°06' E 025°22'1110.3
2015-Feb-27 20:31N 37°05' E 025°09'9 9.7
2015-Feb-27 19:33N 37°10' E 024°59'6421.2
2015-Feb-27 16:32N 37°39' E 023°47'1919.5
2015-Feb-27 15:34N 37°56' E 023°38'1 0.6
2015-Feb-27 14:34N 37°57' E 023°38'0 0.0
2015-Feb-27 13:33N 37°57' E 023°38'1110.7
2015-Feb-27 12:33N 37°47' E 023°42'2921.5
2015-Feb-27 11:12N 37°31' E 024°13'3722.3
2015-Feb-27 09:33N 37°14' E 024°54'14 9.7
2015-Feb-27 08:06N 37°08' E 025°10'1018.0
2015-Feb-27 07:33N 37°06' E 025°22'1312.0
2015-Feb-27 06:27N 37°14' E 025°36'1618.0
2015-Feb-27 05:33N 37°02' E 025°50'1212.3
2015-Feb-27 04:33N 36°56' E 026°03'9 2.6
2015-Feb-27 01:09N 36°60' E 025°53'4 5.5
2015-Feb-27 00:27N 36°56' E 025°55'1516.5
2015-Feb-26 23:33N 37°07' E 025°43'1717.0
2015-Feb-26 22:34N 37°06' E 025°22'11 9.4
2015-Feb-26 21:26N 37°07' E 025°09'6 6.2
2015-Feb-26 20:32N 37°12' E 025°05'1615.6
2015-Feb-26 19:31N 37°26' E 024°57'5719.1
2015-Feb-26 16:31N 37°39' E 023°46'1919.5
2015-Feb-26 15:33N 37°56' E 023°38'1 0.5
2015-Feb-26 14:34N 37°57' E 023°38'0 0.0
2015-Feb-26 13:34N 37°57' E 023°38'8 7.8
2015-Feb-26 12:33N 37°49' E 023°41'3121.5
2015-Feb-26 11:07N 37°31' E 024°13'3522.2
2015-Feb-26 09:34N 37°15' E 024°51'1716.0
2015-Feb-26 08:29N 37°05' E 025°09'1111.5
2015-Feb-26 07:34N 37°06' E 025°22'1110.1
2015-Feb-26 06:31N 37°13' E 025°32'1818.7
2015-Feb-26 05:33N 37°02' E 025°50'1713.6
2015-Feb-26 04:20N 36°53' E 026°08'14 3.3
2015-Feb-26 00:07N 37°01' E 025°53'6 7.5
2015-Feb-25 23:19N 36°55' E 025°56'1516.9
2015-Feb-25 22:27N 37°07' E 025°44'1618.3
2015-Feb-25 21:33N 37°09' E 025°24'1110.8
2015-Feb-25 20:33N 37°08' E 025°10'8 8.5
2015-Feb-25 19:33N 37°10' E 024°60'6521.5
2015-Feb-25 16:33N 37°39' E 023°47'1919.3
2015-Feb-25 15:33N 37°56' E 023°38'1 0.6
2015-Feb-25 14:33N 37°57' E 023°38'0 0.0
2015-Feb-25 13:34N 37°57' E 023°38'1110.7
2015-Feb-25 12:33N 37°46' E 023°42'3021.3
2015-Feb-25 11:08N 37°31' E 024°14'3421.4
2015-Feb-25 09:33N 37°15' E 024°52'1613.5
2015-Feb-25 08:20N 37°05' E 025°09'1012.9
2015-Feb-25 07:34N 37°07' E 025°21'15 6.6
2015-Feb-25 05:17N 36°54' E 025°31'1012.8
2015-Feb-25 04:31N 36°54' E 025°43'3 0.6
2015-Feb-25 00:20N 36°55' E 025°40'17 9.4
2015-Feb-24 22:33N 36°59' E 025°20'1110.9
2015-Feb-24 21:34N 37°10' E 025°17'2311.4
2015-Feb-24 19:33N 37°26' E 024°57'5618.8
2015-Feb-24 16:33N 37°39' E 023°47'1919.3
2015-Feb-24 15:34N 37°56' E 023°38'1 0.7
2015-Feb-24 14:34N 37°57' E 023°38'0 0.0
2015-Feb-24 13:34N 37°57' E 023°38'10 9.5
2015-Feb-24 12:33N 37°47' E 023°41'2321.3
2015-Feb-24 11:28N 37°34' E 024°05'4221.8
2015-Feb-24 09:33N 37°15' E 024°52'1714.7
2015-Feb-24 08:24N 37°05' E 025°09'1012.3
2015-Feb-24 07:33N 37°06' E 025°22'1110.6
2015-Feb-24 06:32N 37°13' E 025°33'1918.6
2015-Feb-24 05:32N 37°01' E 025°50'1513.1
2015-Feb-24 04:21N 36°54' E 026°07'6 1.6
2015-Feb-24 00:32N 36°58' E 026°02'5 4.4
2015-Feb-23 23:29N 36°54' E 025°58'1111.4
2015-Feb-23 22:33N 37°02' E 025°50'1817.9
2015-Feb-23 21:31N 37°13' E 025°31'1313.8
2015-Feb-23 20:34N 37°10' E 025°15'1212.0
2015-Feb-23 19:34N 37°10' E 024°60'6521.5
2015-Feb-23 16:33N 37°39' E 023°47'1919.0
2015-Feb-23 15:33N 37°56' E 023°38'1 0.6
2015-Feb-23 14:33N 37°57' E 023°38'0 0.0
2015-Feb-23 13:33N 37°57' E 023°38'9 9.1
2015-Feb-23 12:33N 37°48' E 023°41'2421.5
2015-Feb-23 11:27N 37°33' E 024°05'4122.0
2015-Feb-23 09:33N 37°15' E 024°52'1715.0
2015-Feb-23 08:27N 37°05' E 025°09'1011.7
2015-Feb-23 07:33N 37°06' E 025°22'1111.5
2015-Feb-23 06:34N 36°55' E 025°24'6 6.0
2015-Feb-23 05:33N 36°52' E 025°30'1211.7
2015-Feb-23 04:30N 36°53' E 025°46'1 0.2
2015-Feb-23 00:31N 36°52' E 025°45'1212.6
2015-Feb-22 23:33N 36°52' E 025°30'1110.4
2015-Feb-22 22:31N 36°59' E 025°20'9 9.5
2015-Feb-22 21:33N 37°08' E 025°20'1210.3
2015-Feb-22 20:23N 37°11' E 025°05'1619.6
2015-Feb-22 19:33N 37°26' E 024°57'5618.8
2015-Feb-22 16:33N 37°39' E 023°47'1919.2
2015-Feb-22 15:33N 37°56' E 023°38'1 0.6
2015-Feb-22 14:33N 37°57' E 023°38'0 0.0
2015-Feb-22 13:33N 37°57' E 023°38'10 9.7
2015-Feb-22 12:33N 37°48' E 023°42'2921.3
2015-Feb-22 11:11N 37°32' E 024°13'3621.9
2015-Feb-22 09:34N 37°15' E 024°52'1614.2
2015-Feb-22 08:24N 37°05' E 025°09'1012.0
2015-Feb-22 07:33N 37°07' E 025°22'7 7.1
2015-Feb-22 06:34N 36°60' E 025°20'10 9.3
2015-Feb-22 05:28N 36°53' E 025°30'1313.5
2015-Feb-22 04:32N 36°53' E 025°45'5 0.2
2015-Feb-21 01:22N 36°55' E 025°40'17 9.6
2015-Feb-20 23:33N 37°01' E 025°19'7 6.7
2015-Feb-20 22:33N 37°07' E 025°21'12 9.2
2015-Feb-20 21:16N 37°06' E 025°06'1822.1
2015-Feb-20 20:28N 37°12' E 024°45'6221.4
2015-Feb-20 17:33N 37°45' E 023°40'1111.4
2015-Feb-20 16:34N 37°57' E 023°38'0 0.0
2015-Feb-20 15:33N 37°57' E 023°38'5 5.3
2015-Feb-20 14:32N 37°51' E 023°39'7021.3
2015-Feb-20 11:15N 37°10' E 024°51'1412.2
2015-Feb-20 10:04N 37°08' E 025°09'1018.5
2015-Feb-20 09:33N 37°08' E 025°21'1110.7
2015-Feb-20 08:34N 37°14' E 025°32'1717.1
2015-Feb-20 07:33N 37°03' E 025°49'1010.5
2015-Feb-20 06:33N 36°57' E 025°60'2 0.4
2015-Feb-20 02:10N 36°58' E 025°58'3 5.1
2015-Feb-20 01:33N 36°57' E 025°54'1717.2
2015-Feb-20 00:33N 37°10' E 025°40'1514.6
2015-Feb-19 23:33N 37°06' E 025°22'10 9.9
2015-Feb-19 22:33N 37°09' E 025°10'2 2.3
2015-Feb-19 21:29N 37°11' E 025°09'1819.0
2015-Feb-19 20:32N 37°27' E 024°59'9 8.7
2015-Feb-19 19:31N 37°32' E 024°50'4420.9
2015-Feb-19 17:26N 37°36' E 023°55'1820.6
2015-Feb-19 16:33N 37°48' E 023°38'9 9.0
2015-Feb-19 15:33N 37°57' E 023°38'0 0.0
2015-Feb-19 14:33N 37°57' E 023°38'2 1.8
2015-Feb-19 13:33N 37°56' E 023°37'2121.1
2015-Feb-19 12:32N 37°38' E 023°53'6321.0
2015-Feb-19 09:33N 37°07' E 025°01'10 9.9
2015-Feb-19 08:33N 37°10' E 025°13'1010.3
2015-Feb-19 07:33N 37°11' E 025°26'1814.9
2015-Feb-19 06:21N 37°05' E 025°47'1313.7
2015-Feb-19 05:25N 36°55' E 025°57'2115.6
2015-Feb-19 04:06N 36°38' E 026°11'24 6.5
2015-Feb-19 00:28N 36°59' E 025°58'4 3.9
2015-Feb-18 23:32N 36°58' E 025°53'1717.3
2015-Feb-18 22:33N 37°10' E 025°39'1413.7
2015-Feb-18 21:33N 37°06' E 025°22'1110.9
2015-Feb-18 20:31N 37°07' E 025°08'8 7.8
2015-Feb-18 19:34N 37°09' E 024°59'6521.6
2015-Feb-18 16:33N 37°37' E 023°46'2020.4
2015-Feb-18 15:33N 37°56' E 023°38'1 0.6
2015-Feb-18 14:33N 37°57' E 023°38'0 0.0
2015-Feb-18 13:33N 37°57' E 023°38'1312.7
2015-Feb-18 12:34N 37°45' E 023°43'6421.1
2015-Feb-18 09:33N 37°11' E 024°51'1711.5
2015-Feb-18 08:06N 37°09' E 025°12'916.7
2015-Feb-18 07:33N 37°06' E 025°22'1413.2
2015-Feb-18 06:28N 36°53' E 025°17'10 9.0
2015-Feb-18 05:20N 36°54' E 025°29'1113.1
2015-Feb-18 04:32N 36°55' E 025°43'8 7.8
2015-Feb-18 03:33N 36°50' E 025°50'1312.7
2015-Feb-18 02:32N 36°56' E 025°36'1010.5
2015-Feb-18 01:33N 36°55' E 025°23'2 1.7
2015-Feb-18 00:33N 36°54' E 025°25'  

Dump ship's entire track history